createdAt,value
2022-10-10T00:01:57.746Z,5.30
2022-10-10T00:04:26.544Z,5.30
2022-10-10T00:06:55.213Z,5.30
2022-10-10T00:09:23.842Z,5.20
2022-10-10T00:11:52.637Z,5.30
2022-10-10T00:14:21.720Z,5.20
2022-10-10T00:16:51.771Z,5.20
2022-10-10T00:19:20.395Z,5.10
2022-10-10T00:21:49.334Z,5.10
2022-10-10T00:24:17.977Z,5.00
2022-10-10T00:26:46.628Z,5.00
2022-10-10T00:29:15.692Z,5.00
2022-10-10T00:31:44.296Z,5.00
2022-10-10T00:34:14.269Z,4.90
2022-10-10T00:36:43.619Z,4.80
2022-10-10T00:39:12.763Z,4.80
2022-10-10T00:41:41.746Z,4.80
2022-10-10T00:44:12.798Z,4.80
2022-10-10T00:46:42.662Z,4.80
2022-10-10T00:49:15.938Z,4.70
2022-10-10T00:51:46.722Z,4.70
2022-10-10T00:54:17.696Z,4.70
2022-10-10T00:56:50.645Z,4.70
2022-10-10T00:59:21.710Z,4.70
2022-10-10T01:01:50.709Z,4.60
2022-10-10T01:04:44.352Z,4.60
2022-10-10T01:07:17.525Z,4.60
2022-10-10T01:09:48.187Z,4.50
2022-10-10T01:12:23.329Z,4.50
2022-10-10T01:15:00.657Z,4.50
2022-10-10T01:17:35.401Z,4.50
2022-10-10T01:20:34.915Z,4.40
2022-10-10T01:23:40.120Z,4.40
2022-10-10T01:26:30.298Z,4.40
2022-10-10T01:29:04.333Z,4.30
2022-10-10T01:31:36.577Z,4.30
2022-10-10T01:34:14.369Z,4.30
2022-10-10T01:36:54.100Z,4.30
2022-10-10T01:39:31.026Z,4.20
2022-10-10T01:42:06.531Z,4.20
2022-10-10T01:44:36.455Z,4.20
2022-10-10T01:47:05.398Z,4.20
2022-10-10T01:49:35.243Z,4.20
2022-10-10T01:52:18.284Z,4.20
2022-10-10T01:55:00.873Z,4.20
2022-10-10T01:57:41.564Z,4.20
2022-10-10T02:00:14.543Z,4.20
2022-10-10T02:02:53.132Z,4.10
2022-10-10T02:05:28.998Z,4.10
2022-10-10T02:08:00.847Z,4.10
2022-10-10T02:10:33.019Z,4.10
2022-10-10T02:13:04.002Z,4.10
2022-10-10T02:15:39.826Z,4.00
2022-10-10T02:18:11.688Z,4.00
2022-10-10T02:20:41.025Z,3.90
2022-10-10T02:23:15.757Z,3.90
2022-10-10T02:25:47.592Z,3.90
2022-10-10T02:28:22.734Z,3.90
2022-10-10T02:30:57.406Z,3.90
2022-10-10T02:33:31.446Z,3.90
2022-10-10T02:36:01.741Z,3.90
2022-10-10T02:38:31.111Z,3.80
2022-10-10T02:41:04.237Z,3.90
2022-10-10T02:43:34.157Z,3.90
2022-10-10T02:46:09.297Z,3.90
2022-10-10T02:48:41.071Z,3.90
2022-10-10T02:51:10.554Z,3.80
2022-10-10T02:53:39.941Z,3.80
2022-10-10T02:56:08.925Z,3.80
2022-10-10T02:58:37.563Z,3.80
2022-10-10T03:01:07.690Z,3.90
2022-10-10T03:03:36.671Z,3.90
2022-10-10T03:06:05.572Z,3.90
2022-10-10T03:08:34.117Z,3.80
2022-10-10T03:11:03.235Z,3.80
2022-10-10T03:13:33.263Z,3.90
2022-10-10T03:16:02.289Z,3.80
2022-10-10T03:18:33.405Z,3.80
2022-10-10T03:21:01.894Z,3.90
2022-10-10T03:23:30.556Z,3.90
2022-10-10T03:25:59.077Z,3.90
2022-10-10T03:28:28.160Z,3.90
2022-10-10T03:30:56.880Z,3.90
2022-10-10T03:33:25.528Z,3.90
2022-10-10T03:35:55.433Z,3.90
2022-10-10T03:38:24.355Z,3.80
2022-10-10T03:40:53.044Z,3.90
2022-10-10T03:43:21.544Z,3.80
2022-10-10T03:45:50.008Z,3.90
2022-10-10T03:48:19.165Z,3.90
2022-10-10T03:50:47.675Z,3.90
2022-10-10T03:53:17.641Z,3.90
2022-10-10T03:55:46.362Z,3.90
2022-10-10T03:58:15.182Z,3.90
2022-10-10T04:00:43.679Z,3.90
2022-10-10T04:03:12.164Z,3.90
2022-10-10T04:05:40.954Z,3.90
2022-10-10T04:08:09.448Z,3.90
2022-10-10T04:10:39.460Z,3.90
2022-10-10T04:13:08.411Z,3.90
2022-10-10T04:15:37.368Z,3.90
2022-10-10T04:18:06.110Z,3.90
2022-10-10T04:20:35.137Z,3.90
2022-10-10T04:23:03.803Z,3.90
2022-10-10T04:25:32.638Z,3.90
2022-10-10T04:28:03.045Z,3.90
2022-10-10T04:30:35.018Z,3.90
2022-10-10T04:33:03.599Z,3.90
2022-10-10T04:35:32.101Z,3.90
2022-10-10T04:38:00.677Z,3.90
2022-10-10T04:40:29.442Z,3.90
2022-10-10T04:42:58.097Z,3.90
2022-10-10T04:45:28.848Z,3.90
2022-10-10T04:47:57.664Z,3.90
2022-10-10T04:50:26.495Z,3.90
2022-10-10T04:52:55.094Z,3.90
2022-10-10T04:55:23.995Z,4.00
2022-10-10T04:57:52.560Z,4.00
2022-10-10T05:00:21.261Z,4.00
2022-10-10T05:02:51.348Z,4.00
2022-10-10T05:05:20.517Z,3.90
2022-10-10T05:07:54.448Z,3.90
2022-10-10T05:10:24.221Z,3.90
2022-10-10T05:12:54.312Z,3.80
2022-10-10T05:15:27.105Z,3.80
2022-10-10T05:17:57.274Z,3.80
2022-10-10T05:20:26.284Z,3.80
2022-10-10T05:22:54.832Z,3.80
2022-10-10T05:25:23.417Z,3.80
2022-10-10T05:27:52.259Z,3.80
2022-10-10T05:30:21.459Z,3.80
2022-10-10T05:32:50.198Z,3.80
2022-10-10T05:35:20.892Z,3.80
2022-10-10T05:37:49.739Z,3.80
2022-10-10T05:40:19.599Z,3.80
2022-10-10T05:42:48.494Z,3.90
2022-10-10T05:45:17.440Z,3.90
2022-10-10T05:47:46.769Z,3.90
2022-10-10T05:50:31.965Z,3.90
2022-10-10T05:53:00.526Z,3.90
2022-10-10T05:55:29.699Z,4.00
2022-10-10T05:57:58.368Z,4.00
2022-10-10T06:00:27.751Z,4.00
2022-10-10T06:02:59.301Z,3.90
2022-10-10T06:05:29.836Z,3.90
2022-10-10T06:08:10.760Z,3.90
2022-10-10T06:10:43.455Z,3.90
2022-10-10T06:13:13.142Z,3.90
2022-10-10T06:15:41.740Z,4.00
2022-10-10T06:18:11.443Z,4.00
2022-10-10T06:20:42.886Z,4.00
2022-10-10T06:23:11.503Z,4.10
2022-10-10T06:25:41.810Z,4.10
2022-10-10T06:28:11.562Z,4.20
2022-10-10T06:30:44.036Z,4.20
2022-10-10T06:33:15.654Z,4.20
2022-10-10T06:35:47.875Z,4.30
2022-10-10T06:38:20.968Z,4.30
2022-10-10T06:40:50.289Z,4.30
2022-10-10T06:43:19.659Z,4.40
2022-10-10T06:45:57.319Z,4.40
2022-10-10T06:48:27.647Z,4.50
2022-10-10T06:51:04.832Z,4.50
2022-10-10T06:53:39.971Z,4.60
2022-10-10T06:56:09.220Z,4.60
2022-10-10T06:58:39.371Z,4.70
2022-10-10T07:01:15.250Z,4.80
2022-10-10T07:03:47.746Z,4.90
2022-10-10T07:06:20.272Z,5.00
2022-10-10T07:08:50.888Z,5.00
2022-10-10T07:11:19.774Z,5.10
2022-10-10T07:13:53.899Z,5.20
2022-10-10T07:16:25.630Z,5.30
2022-10-10T07:18:55.741Z,5.50
2022-10-10T07:21:31.572Z,5.60
2022-10-10T07:24:00.504Z,5.70
2022-10-10T07:26:37.825Z,5.80
2022-10-10T07:29:07.651Z,5.90
2022-10-10T07:31:36.725Z,6.00
2022-10-10T07:34:09.471Z,6.20
2022-10-10T07:36:43.930Z,6.30
2022-10-10T07:39:17.011Z,6.40
2022-10-10T07:41:46.627Z,6.50
2022-10-10T07:44:19.076Z,6.70
2022-10-10T07:46:55.570Z,6.80
2022-10-10T07:49:26.505Z,7.00
2022-10-10T07:52:07.218Z,7.10
2022-10-10T07:54:46.341Z,7.20
2022-10-10T07:57:18.452Z,7.40
2022-10-10T07:59:55.657Z,7.60
2022-10-10T08:02:31.168Z,7.70
2022-10-10T08:05:05.610Z,8.00
2022-10-10T08:07:37.596Z,8.20
2022-10-10T08:10:15.161Z,8.40
2022-10-10T08:12:45.164Z,8.60
2022-10-10T08:15:21.878Z,8.80
2022-10-10T08:17:54.281Z,8.90
2022-10-10T08:20:33.960Z,9.10
2022-10-10T08:23:06.901Z,9.30
2022-10-10T08:25:39.686Z,9.40
2022-10-10T08:28:13.073Z,9.60
2022-10-10T08:30:45.839Z,9.80
2022-10-10T08:33:29.394Z,9.90
2022-10-10T08:36:09.885Z,10.10
2022-10-10T08:38:53.072Z,10.30
2022-10-10T08:41:47.763Z,10.50
2022-10-10T08:44:27.798Z,10.60
2022-10-10T08:47:09.156Z,10.90
2022-10-10T08:49:44.720Z,11.10
2022-10-10T08:52:30.014Z,11.30
2022-10-10T08:55:23.383Z,11.50
2022-10-10T08:57:57.756Z,11.60
2022-10-10T09:00:34.042Z,11.70
2022-10-10T09:03:25.832Z,11.90
2022-10-10T09:06:19.482Z,12.10
2022-10-10T09:09:02.591Z,12.30
2022-10-10T09:11:50.710Z,12.40
2022-10-10T09:14:41.877Z,12.50
2022-10-10T09:17:25.498Z,12.60
2022-10-10T09:20:11.714Z,12.70
2022-10-10T09:22:54.667Z,12.80
2022-10-10T09:25:36.409Z,12.90
2022-10-10T09:28:14.614Z,12.90
2022-10-10T09:31:00.100Z,13.00
2022-10-10T09:33:52.757Z,13.20
2022-10-10T09:36:26.542Z,13.30
2022-10-10T09:39:02.668Z,13.50
2022-10-10T09:41:38.597Z,13.70
2022-10-10T09:44:14.089Z,13.90
2022-10-10T09:46:48.533Z,14.10
2022-10-10T09:49:19.551Z,14.30
2022-10-10T09:51:50.967Z,14.40
2022-10-10T09:54:26.032Z,14.50
2022-10-10T09:57:00.577Z,14.60
2022-10-10T09:59:52.206Z,14.70
2022-10-10T10:02:37.959Z,14.70
2022-10-10T10:05:26.782Z,14.70
2022-10-10T10:08:05.076Z,14.80
2022-10-10T10:10:49.193Z,14.80
2022-10-10T10:13:38.127Z,14.90
2022-10-10T10:16:18.446Z,14.90
2022-10-10T10:18:56.030Z,14.90
2022-10-10T10:21:29.109Z,15.00
2022-10-10T10:24:03.328Z,15.00
2022-10-10T10:26:47.872Z,15.10
2022-10-10T10:29:39.348Z,15.10
2022-10-10T10:32:29.410Z,15.10
2022-10-10T10:35:30.874Z,15.20
2022-10-10T10:38:27.523Z,15.20
2022-10-10T10:41:08.150Z,15.30
2022-10-10T10:44:02.771Z,15.40
2022-10-10T10:46:51.511Z,15.50
2022-10-10T10:49:35.544Z,15.60
2022-10-10T10:52:41.152Z,15.60
2022-10-10T10:55:33.168Z,15.70
2022-10-10T10:59:35.757Z,15.80
2022-10-10T11:01:56.821Z,15.90
2022-10-10T11:05:29.013Z,16.00
2022-10-10T11:08:41.918Z,16.10
2022-10-10T11:11:45.060Z,16.10
2022-10-10T11:14:30.414Z,16.10
2022-10-10T11:17:23.215Z,16.20
2022-10-10T11:20:05.633Z,16.40
2022-10-10T11:22:47.539Z,16.50
2022-10-10T11:25:30.711Z,16.50
2022-10-10T11:28:11.724Z,16.60
2022-10-10T11:30:49.019Z,16.70
2022-10-10T11:33:23.987Z,16.70
2022-10-10T11:36:05.573Z,16.80
2022-10-10T11:38:48.258Z,16.80
2022-10-10T11:41:36.003Z,16.90
2022-10-10T11:44:15.788Z,17.00
2022-10-10T11:46:57.434Z,17.00
2022-10-10T11:49:39.559Z,17.00
2022-10-10T11:55:41.277Z,17.00
2022-10-10T11:58:35.531Z,17.00
2022-10-10T12:01:20.598Z,17.00
2022-10-10T12:04:28.230Z,17.10
2022-10-10T12:07:09.836Z,17.10
2022-10-10T12:09:57.302Z,17.10
2022-10-10T12:12:35.686Z,17.10
2022-10-10T12:15:18.429Z,17.10
2022-10-10T12:17:52.862Z,17.10
2022-10-10T12:20:55.079Z,17.10
2022-10-10T12:23:43.871Z,17.10
2022-10-10T12:26:26.864Z,17.20
2022-10-10T12:29:25.871Z,17.20
2022-10-10T12:32:28.445Z,17.20
2022-10-10T12:35:25.152Z,17.30
2022-10-10T12:38:15.311Z,17.30
2022-10-10T12:41:19.817Z,17.30
2022-10-10T12:44:21.465Z,17.30
2022-10-10T12:47:46.273Z,17.20
2022-10-10T12:50:28.365Z,17.20
2022-10-10T12:53:01.921Z,17.20
2022-10-10T12:56:07.338Z,17.20
2022-10-10T12:58:43.154Z,17.20
2022-10-10T13:01:38.507Z,17.10
2022-10-10T13:04:21.456Z,17.10
2022-10-10T13:07:01.876Z,17.10
2022-10-10T13:09:41.890Z,17.10
2022-10-10T13:12:37.774Z,17.00
2022-10-10T13:15:22.088Z,17.00
2022-10-10T13:17:55.151Z,17.00
2022-10-10T13:20:48.112Z,17.00
2022-10-10T13:23:20.826Z,17.10
2022-10-10T13:25:51.884Z,17.20
2022-10-10T13:28:23.730Z,17.20
2022-10-10T13:31:04.127Z,17.30
2022-10-10T13:33:39.443Z,17.30
2022-10-10T13:36:11.471Z,17.30
2022-10-10T13:38:47.676Z,17.40
2022-10-10T13:41:33.672Z,17.50
2022-10-10T13:44:08.795Z,17.60
2022-10-10T13:46:44.673Z,17.70
2022-10-10T13:49:33.779Z,17.70
2022-10-10T13:52:23.076Z,17.80
2022-10-10T13:55:08.807Z,17.80
2022-10-10T13:57:56.194Z,17.70
2022-10-10T14:00:37.538Z,17.60
2022-10-10T14:03:38.943Z,17.60
2022-10-10T14:06:23.312Z,17.50
2022-10-10T14:08:56.649Z,17.50
2022-10-10T14:11:39.336Z,17.50
2022-10-10T14:14:23.775Z,17.50
2022-10-10T14:17:12.851Z,17.50
2022-10-10T14:19:48.780Z,17.50
2022-10-10T14:22:27.356Z,17.50
2022-10-10T14:25:03.677Z,17.50
2022-10-10T14:27:37.317Z,17.50
2022-10-10T14:30:18.843Z,17.50
2022-10-10T14:32:51.556Z,17.40
2022-10-10T14:35:43.194Z,17.40
2022-10-10T14:38:29.087Z,17.40
2022-10-10T14:40:59.356Z,17.40
2022-10-10T14:43:33.865Z,17.40
2022-10-10T14:46:08.446Z,17.40
2022-10-10T14:48:46.327Z,17.40
2022-10-10T14:51:35.193Z,17.40
2022-10-10T14:54:17.340Z,17.30
2022-10-10T14:57:08.680Z,17.30
2022-10-10T14:59:49.754Z,17.20
2022-10-10T15:02:23.804Z,17.20
2022-10-10T15:04:56.017Z,17.10
2022-10-10T15:07:31.924Z,17.00
2022-10-10T15:10:32.780Z,17.00
2022-10-10T15:13:04.172Z,16.90
2022-10-10T15:15:45.823Z,16.80
2022-10-10T15:18:47.799Z,16.90
2022-10-10T15:21:33.879Z,16.80
2022-10-10T15:24:11.910Z,16.80
2022-10-10T15:26:52.946Z,16.70
2022-10-10T15:29:33.225Z,16.70
2022-10-10T15:32:03.340Z,16.70
2022-10-10T15:34:49.665Z,16.60
2022-10-10T15:37:29.256Z,16.40
2022-10-10T15:40:22.832Z,16.20
2022-10-10T15:43:07.511Z,16.00
2022-10-10T15:45:55.944Z,15.80
2022-10-10T15:48:25.573Z,15.60
2022-10-10T15:50:58.723Z,15.30
2022-10-10T15:53:37.360Z,15.10
2022-10-10T15:56:10.660Z,14.90
2022-10-10T15:58:45.204Z,14.70
2022-10-10T16:01:21.417Z,14.60
2022-10-10T16:03:53.018Z,14.60
2022-10-10T16:06:25.988Z,14.50
2022-10-10T16:09:16.280Z,14.50
2022-10-10T16:12:01.052Z,14.50
2022-10-10T16:14:42.990Z,14.40
2022-10-10T16:17:22.225Z,14.40
2022-10-10T16:20:06.379Z,14.30
2022-10-10T16:22:43.983Z,14.30
2022-10-10T16:25:22.311Z,14.30
2022-10-10T16:28:08.362Z,14.30
2022-10-10T16:31:01.495Z,14.20
2022-10-10T16:33:42.594Z,14.20
2022-10-10T16:36:17.823Z,14.20
2022-10-10T16:38:50.924Z,14.10
2022-10-10T16:41:46.593Z,14.10
2022-10-10T16:44:17.309Z,14.10
2022-10-10T16:46:52.094Z,14.10
2022-10-10T16:49:24.170Z,14.10
2022-10-10T16:52:06.631Z,14.10
2022-10-10T16:54:39.383Z,14.10
2022-10-10T16:57:21.852Z,14.10
2022-10-10T17:00:00.059Z,14.10
2022-10-10T17:02:31.692Z,14.10
2022-10-10T17:05:11.879Z,14.00
2022-10-10T17:07:46.423Z,13.90
2022-10-10T17:10:22.452Z,13.80
2022-10-10T17:12:52.026Z,13.80
2022-10-10T17:15:36.444Z,13.60
2022-10-10T17:18:15.178Z,13.50
2022-10-10T17:20:49.039Z,13.40
2022-10-10T17:23:22.657Z,13.30
2022-10-10T17:26:11.983Z,13.30
2022-10-10T17:29:10.725Z,13.20
2022-10-10T17:32:00.549Z,13.10
2022-10-10T17:34:44.858Z,13.10
2022-10-10T17:37:38.524Z,13.10
2022-10-10T17:40:31.773Z,13.10
2022-10-10T17:43:09.855Z,13.00
2022-10-10T17:45:46.545Z,13.00
2022-10-10T17:48:25.360Z,12.90
2022-10-10T17:51:07.867Z,12.90
2022-10-10T17:53:42.219Z,12.90
2022-10-10T17:56:27.133Z,12.90
2022-10-10T17:59:10.264Z,12.90
2022-10-10T18:01:47.902Z,12.80
2022-10-10T18:04:24.813Z,12.90
2022-10-10T18:07:06.012Z,12.90
2022-10-10T18:09:56.817Z,12.90
2022-10-10T18:12:44.177Z,12.90
2022-10-10T18:15:23.481Z,12.90
2022-10-10T18:18:09.325Z,12.90
2022-10-10T18:20:41.650Z,12.90
2022-10-10T18:23:17.901Z,12.90
2022-10-10T18:25:51.081Z,12.80
2022-10-10T18:28:32.951Z,12.80
2022-10-10T18:31:13.434Z,12.80
2022-10-10T18:34:00.891Z,12.70
2022-10-10T18:36:43.014Z,12.60
2022-10-10T18:39:23.605Z,12.50
2022-10-10T18:41:59.971Z,12.50
2022-10-10T18:44:41.416Z,12.40
2022-10-10T18:47:13.503Z,12.40
2022-10-10T18:49:48.550Z,12.30
2022-10-10T18:52:34.318Z,12.20
2022-10-10T18:55:28.810Z,12.10
2022-10-10T18:58:02.669Z,12.10
2022-10-10T19:00:41.636Z,11.90
2022-10-10T19:03:17.488Z,11.80
2022-10-10T19:06:00.511Z,11.80
2022-10-10T19:08:34.565Z,11.70
2022-10-10T19:11:25.231Z,11.60
2022-10-10T19:14:02.705Z,11.50
2022-10-10T19:16:45.443Z,11.40
2022-10-10T19:19:35.312Z,11.30
2022-10-10T19:22:11.301Z,11.20
2022-10-10T19:24:53.725Z,11.20
2022-10-10T19:27:32.534Z,11.10
2022-10-10T19:30:06.631Z,11.00
2022-10-10T19:35:24.266Z,10.90
2022-10-10T19:37:55.812Z,10.80
2022-10-10T19:40:25.647Z,10.70
2022-10-10T19:43:06.953Z,10.70
2022-10-10T19:45:52.938Z,10.60
2022-10-10T19:48:26.597Z,10.60
2022-10-10T19:51:14.198Z,10.40
2022-10-10T19:53:53.951Z,10.40
2022-10-10T19:56:28.987Z,10.30
2022-10-10T19:59:06.298Z,10.30
2022-10-10T20:01:45.167Z,10.30
2022-10-10T20:04:26.775Z,10.20
2022-10-10T20:07:03.091Z,10.10
2022-10-10T20:09:37.579Z,10.10
2022-10-10T20:12:12.781Z,10.00
2022-10-10T20:14:46.274Z,9.90
2022-10-10T20:17:35.758Z,9.90
2022-10-10T20:20:18.064Z,9.80
2022-10-10T20:22:57.076Z,9.80
2022-10-10T20:25:39.794Z,9.70
2022-10-10T20:28:14.537Z,9.60
2022-10-10T20:31:01.526Z,9.60
2022-10-10T20:33:36.062Z,9.60
2022-10-10T20:36:16.296Z,9.50
2022-10-10T20:38:56.986Z,9.50
2022-10-10T20:41:37.338Z,9.40
2022-10-10T20:44:20.893Z,9.40
2022-10-10T20:47:09.695Z,9.40
2022-10-10T20:49:46.904Z,9.40
2022-10-10T20:52:23.194Z,9.30
2022-10-10T20:55:03.521Z,9.30
2022-10-10T20:57:39.837Z,9.20
2022-10-10T21:00:23.347Z,9.20
2022-10-10T21:03:02.001Z,9.10
2022-10-10T21:05:39.859Z,9.10
2022-10-10T21:08:19.951Z,9.10
2022-10-10T21:10:55.609Z,9.00
2022-10-10T21:13:31.199Z,9.00
2022-10-10T21:16:00.913Z,8.90
2022-10-10T21:18:38.298Z,8.90
2022-10-10T21:21:17.453Z,8.80
2022-10-10T21:23:55.827Z,8.80
2022-10-10T21:26:32.270Z,8.80
2022-10-10T21:29:06.136Z,8.70
2022-10-10T21:31:38.532Z,8.70
2022-10-10T21:34:31.277Z,8.60
2022-10-10T21:37:10.658Z,8.60
2022-10-10T21:39:46.763Z,8.60
2022-10-10T21:42:20.233Z,8.50
2022-10-10T21:44:56.877Z,8.50
2022-10-10T21:47:32.241Z,8.40
2022-10-10T21:50:42.256Z,8.30
2022-10-10T21:53:29.221Z,8.30
2022-10-10T21:56:03.994Z,8.30
2022-10-10T21:58:40.874Z,8.30
2022-10-10T22:01:20.958Z,8.30
2022-10-10T22:04:03.256Z,8.20
2022-10-10T22:06:40.321Z,8.20
2022-10-10T22:09:16.786Z,8.20
2022-10-10T22:11:53.359Z,8.10
2022-10-10T22:14:27.246Z,8.10
2022-10-10T22:16:59.547Z,8.10
2022-10-10T22:19:29.641Z,8.00
2022-10-10T22:22:03.319Z,8.00
2022-10-10T22:24:34.671Z,8.00
2022-10-10T22:27:07.027Z,8.00
2022-10-10T22:29:38.516Z,7.90
2022-10-10T22:32:09.850Z,7.90
2022-10-10T22:34:41.427Z,7.80
2022-10-10T22:37:13.124Z,7.80
2022-10-10T22:39:47.294Z,7.70
2022-10-10T22:42:23.971Z,7.70
2022-10-10T22:44:54.005Z,7.70
2022-10-10T22:47:24.488Z,7.70
2022-10-10T22:49:55.644Z,7.70
2022-10-10T22:52:28.852Z,7.60
2022-10-10T22:54:59.942Z,7.60
2022-10-10T22:57:31.401Z,7.60
2022-10-10T23:00:01.351Z,7.60
2022-10-10T23:02:30.742Z,7.50
2022-10-10T23:05:01.030Z,7.50
2022-10-10T23:07:31.186Z,7.40
2022-10-10T23:10:00.260Z,7.40
2022-10-10T23:12:30.127Z,7.40
2022-10-10T23:15:04.395Z,7.30
2022-10-10T23:17:35.894Z,7.30
2022-10-10T23:20:06.850Z,7.30
2022-10-10T23:22:37.792Z,7.30
2022-10-10T23:25:07.599Z,7.20
2022-10-10T23:27:37.502Z,7.10
2022-10-10T23:30:07.450Z,7.10
2022-10-10T23:32:36.777Z,7.00
2022-10-10T23:35:06.118Z,6.90
2022-10-10T23:37:37.027Z,6.90
2022-10-10T23:40:09.818Z,6.90
2022-10-10T23:42:38.543Z,6.80
2022-10-10T23:45:09.056Z,6.80
2022-10-10T23:47:39.729Z,6.80
2022-10-10T23:50:09.087Z,6.70
2022-10-10T23:52:43.635Z,6.70
2022-10-10T23:55:13.276Z,6.70
2022-10-10T23:57:42.839Z,6.60
